Time;durP1;ratioP1;P1;durP2;ratioP2;P2;SDS_P1;SDS_P2;PMS_P1;PMS_P2;Temp;Humidity;BMP_temperature;BMP_pressure;BME280_temperature;BME280_humidity;BME280_pressure;Samples;Min_cycle;Max_cycle;Signal;HPM_P1;HPM_P2
2022/05/01 00:00:58;;;;;;;;;;;27.80;83.30;;;;;;5020836;28;20128;-52
2022/05/01 00:03:36;;;;;;;;;;;27.80;83.30;;;;;;5021079;28;20205;-54
2022/05/01 00:06:09;;;;;;;;;;;27.80;83.50;;;;;;5020764;28;19913;-52
2022/05/01 00:08:36;;;;;;;;;;;27.80;83.50;;;;;;5019193;28;20124;-53
2022/05/01 00:11:02;;;;;;;;;;;27.80;83.40;;;;;;5007199;28;19965;-54
2022/05/01 00:13:29;;;;;;;;;;;27.70;83.40;;;;;;5008027;28;19914;-54
2022/05/01 00:15:56;;;;;;;;;;;27.80;83.60;;;;;;5007545;28;19906;-55
2022/05/01 00:18:22;;;;;;;;;;;27.80;83.60;;;;;;5007586;28;19917;-54
2022/05/01 00:20:49;;;;;;;;;;;27.70;83.40;;;;;;5007582;28;19906;-54
2022/05/01 00:23:15;;;;;;;;;;;27.70;83.50;;;;;;5007683;28;19913;-58
2022/05/01 00:25:42;;;;;;;;;;;27.70;83.70;;;;;;5007273;28;19913;-56
2022/05/01 00:28:08;;;;;;;;;;;27.70;83.70;;;;;;5007612;28;19920;-54
2022/05/01 00:30:36;;;;;;;;;;;27.70;83.90;;;;;;5007381;28;19968;-56
2022/05/01 00:38:31;;;;;;;;;;;27.60;84.10;;;;;;5007475;28;19924;-56
2022/05/01 00:40:57;;;;;;;;;;;27.60;84.10;;;;;;5007103;28;19906;-52
2022/05/01 00:43:24;;;;;;;;;;;27.60;84.10;;;;;;5007471;28;19914;-53
2022/05/01 00:45:50;;;;;;;;;;;27.60;84.00;;;;;;5007107;28;19913;-55
2022/05/01 00:48:16;;;;;;;;;;;27.60;84.00;;;;;;5007297;28;19914;-53
2022/05/01 00:50:43;;;;;;;;;;;27.60;84.00;;;;;;5006799;28;19913;-52
2022/05/01 00:53:10;;;;;;;;;;;27.60;84.10;;;;;;5007008;28;20267;-52
2022/05/01 00:55:37;;;;;;;;;;;27.60;84.10;;;;;;5006786;28;19921;-59
2022/05/01 00:58:06;;;;;;;;;;;27.60;84.20;;;;;;5006756;28;19917;-55
2022/05/01 01:00:33;;;;;;;;;;;27.60;84.10;;;;;;5006456;28;19906;-56
2022/05/01 01:02:59;;;;;;;;;;;27.60;84.20;;;;;;5006721;28;20105;-55
2022/05/01 01:05:25;;;;;;;;;;;27.50;83.90;;;;;;5006668;28;20256;-56
2022/05/01 01:07:52;;;;;;;;;;;27.50;84.00;;;;;;5006410;28;19922;-53
2022/05/01 01:10:19;;;;;;;;;;;27.60;84.10;;;;;;5006612;28;19905;-55
2022/05/01 01:12:54;;;;;;;;;;;27.50;84.10;;;;;;5006639;28;19961;-52
2022/05/01 01:15:31;;;;;;;;;;;27.50;84.10;;;;;;5006460;28;20126;-55
2022/05/01 01:17:58;;;;;;;;;;;27.50;84.30;;;;;;5006675;28;20185;-53
2022/05/01 01:20:28;;;;;;;;;;;27.50;84.50;;;;;;5005692;28;20082;-55
2022/05/01 01:22:58;;;;;;;;;;;27.50;84.60;;;;;;5006137;28;20189;-55
2022/05/01 01:25:29;;;;;;;;;;;27.50;84.90;;;;;;5006247;28;19944;-53
2022/05/01 01:27:58;;;;;;;;;;;27.40;84.80;;;;;;5005034;28;19914;-54
2022/05/01 01:33:10;;;;;;;;;;;27.40;85.00;;;;;;5006197;28;20152;-54
2022/05/01 01:35:37;;;;;;;;;;;27.40;84.70;;;;;;5006117;28;19912;-53
2022/05/01 01:38:04;;;;;;;;;;;27.30;84.90;;;;;;5006327;28;19918;-53
2022/05/01 01:40:35;;;;;;;;;;;27.30;84.90;;;;;;5005831;28;20129;-56
2022/05/01 01:43:01;;;;;;;;;;;27.30;84.90;;;;;;5006146;28;19949;-53
2022/05/01 01:45:28;;;;;;;;;;;27.30;85.00;;;;;;5005861;28;19906;-56
2022/05/01 01:48:15;;;;;;;;;;;27.30;84.80;;;;;;5005891;28;19914;-54
2022/05/01 01:50:41;;;;;;;;;;;27.30;84.90;;;;;;5005521;28;19906;-55
2022/05/01 01:53:08;;;;;;;;;;;27.30;85.10;;;;;;5005837;28;19981;-54
2022/05/01 01:55:37;;;;;;;;;;;27.30;85.00;;;;;;5005718;28;19929;-55
2022/05/01 01:58:03;;;;;;;;;;;27.30;85.20;;;;;;5005754;28;19985;-56
2022/05/01 02:00:29;;;;;;;;;;;27.30;85.10;;;;;;5005493;28;19902;-56
2022/05/01 02:03:06;;;;;;;;;;;27.30;85.10;;;;;;5005825;28;19957;-54
2022/05/01 02:05:33;;;;;;;;;;;27.30;85.30;;;;;;5005466;28;20138;-51
2022/05/01 02:07:59;;;;;;;;;;;27.30;85.20;;;;;;5005409;28;19936;-56
2022/05/01 02:10:25;;;;;;;;;;;27.20;85.30;;;;;;5005440;28;19905;-54
2022/05/01 02:12:53;;;;;;;;;;;27.20;85.40;;;;;;5005607;28;20205;-54
2022/05/01 02:15:20;;;;;;;;;;;27.30;85.50;;;;;;5005292;28;20158;-54
2022/05/01 02:17:48;;;;;;;;;;;27.20;85.20;;;;;;5005233;28;19917;-55
2022/05/01 02:20:14;;;;;;;;;;;27.20;85.30;;;;;;5005252;28;19933;-54
2022/05/01 02:22:41;;;;;;;;;;;27.20;85.30;;;;;;5005353;28;19914;-53
2022/05/01 02:25:11;;;;;;;;;;;27.30;85.60;;;;;;5005199;28;20096;-53
2022/05/01 02:27:39;;;;;;;;;;;27.20;86.10;;;;;;5005207;28;20094;-53
2022/05/01 02:30:07;;;;;;;;;;;27.20;85.70;;;;;;5005107;28;20408;-53
2022/05/01 02:32:36;;;;;;;;;;;27.20;85.70;;;;;;5003718;28;20113;-55
2022/05/01 02:35:03;;;;;;;;;;;27.10;85.70;;;;;;5004976;28;20101;-56
2022/05/01 02:37:29;;;;;;;;;;;27.20;86.00;;;;;;5005147;28;19918;-61
2022/05/01 02:39:55;;;;;;;;;;;27.20;86.10;;;;;;5004965;28;20194;-56
2022/05/01 02:42:21;;;;;;;;;;;27.20;86.10;;;;;;5005050;28;19977;-51
2022/05/01 02:44:47;;;;;;;;;;;27.10;86.60;;;;;;5005147;28;19910;-51
2022/05/01 02:47:13;;;;;;;;;;;27.10;86.20;;;;;;5004917;28;19914;-54
2022/05/01 02:49:40;;;;;;;;;;;27.20;86.30;;;;;;5004861;28;19906;-52
2022/05/01 02:52:07;;;;;;;;;;;27.10;86.30;;;;;;5004670;28;20079;-51
2022/05/01 02:54:33;;;;;;;;;;;27.10;86.20;;;;;;5004913;28;19941;-52
2022/05/01 02:57:00;;;;;;;;;;;27.10;86.20;;;;;;5004701;28;19913;-52
2022/05/01 02:59:26;;;;;;;;;;;27.10;86.10;;;;;;5004619;28;19906;-52
2022/05/01 03:01:52;;;;;;;;;;;27.10;86.20;;;;;;5004642;28;19912;-53
2022/05/01 03:04:18;;;;;;;;;;;27.10;86.20;;;;;;5004649;28;19913;-51
2022/05/01 03:06:44;;;;;;;;;;;27.10;86.30;;;;;;5004597;28;19906;-55
2022/05/01 03:09:10;;;;;;;;;;;27.10;86.30;;;;;;5004504;28;19926;-50
2022/05/01 03:11:36;;;;;;;;;;;27.10;86.40;;;;;;5004740;28;19916;-47
2022/05/01 03:14:09;;;;;;;;;;;27.10;86.50;;;;;;5004976;28;19917;-51
2022/05/01 03:16:35;;;;;;;;;;;27.10;86.60;;;;;;5004747;28;19910;-52
2022/05/01 03:24:31;;;;;;;;;;;27.00;86.40;;;;;;5004508;28;19917;-53
2022/05/01 03:26:57;;;;;;;;;;;27.00;86.50;;;;;;5004517;28;19906;-52
2022/05/01 03:29:23;;;;;;;;;;;27.00;86.70;;;;;;5004529;28;19917;-57
2022/05/01 03:31:50;;;;;;;;;;;27.00;86.90;;;;;;5004451;28;19944;-55
2022/05/01 03:34:19;;;;;;;;;;;27.00;86.90;;;;;;5004536;28;19967;-53
2022/05/01 03:36:47;;;;;;;;;;;27.00;86.90;;;;;;5004474;28;19910;-51
2022/05/01 03:39:14;;;;;;;;;;;27.00;87.00;;;;;;5004270;28;19960;-55
2022/05/01 03:41:40;;;;;;;;;;;26.90;86.90;;;;;;5003315;28;19925;-52
2022/05/01 03:44:07;;;;;;;;;;;27.00;87.20;;;;;;5005428;28;19914;-51
2022/05/01 03:46:38;;;;;;;;;;;27.00;87.30;;;;;;5008078;28;19941;-54
2022/05/01 03:49:05;;;;;;;;;;;27.00;87.30;;;;;;5008560;28;20062;-51
2022/05/01 03:51:34;;;;;;;;;;;27.00;87.20;;;;;;5008125;28;20142;-54
2022/05/01 03:54:02;;;;;;;;;;;27.00;87.30;;;;;;5008302;28;20126;-52
2022/05/01 03:56:31;;;;;;;;;;;27.00;87.20;;;;;;5008181;28;19916;-53
2022/05/01 03:58:57;;;;;;;;;;;27.00;87.30;;;;;;5008202;28;19914;-53
2022/05/01 04:01:24;;;;;;;;;;;27.00;87.50;;;;;;5007739;28;19909;-52
2022/05/01 04:03:51;;;;;;;;;;;26.90;87.40;;;;;;5008249;28;19916;-52
2022/05/01 04:06:17;;;;;;;;;;;26.90;87.40;;;;;;5007726;28;20140;-53
2022/05/01 04:08:43;;;;;;;;;;;26.90;87.60;;;;;;5007586;28;19988;-56
2022/05/01 04:11:10;;;;;;;;;;;26.90;87.60;;;;;;5007701;28;19944;-52
2022/05/01 04:13:37;;;;;;;;;;;26.90;87.70;;;;;;5007937;28;19914;-53
2022/05/01 04:16:04;;;;;;;;;;;26.90;87.70;;;;;;5007390;28;20059;-55
2022/05/01 04:18:34;;;;;;;;;;;26.90;87.70;;;;;;5007799;28;19960;-52
2022/05/01 04:21:01;;;;;;;;;;;26.90;87.80;;;;;;5007389;28;20188;-53
2022/05/01 04:23:27;;;;;;;;;;;26.90;87.80;;;;;;5007469;28;19956;-53
2022/05/01 04:25:54;;;;;;;;;;;26.90;87.80;;;;;;5007473;28;19906;-56
2022/05/01 04:28:20;;;;;;;;;;;26.90;87.80;;;;;;5007643;28;19914;-54
2022/05/01 04:30:46;;;;;;;;;;;26.90;87.80;;;;;;5007224;28;19905;-50
2022/05/01 04:33:14;;;;;;;;;;;26.90;87.80;;;;;;5007485;28;20264;-54
2022/05/01 04:35:43;;;;;;;;;;;26.90;87.80;;;;;;5007160;28;20248;-57
2022/05/01 04:38:10;;;;;;;;;;;26.90;88.00;;;;;;5007280;28;19924;-56
2022/05/01 04:40:38;;;;;;;;;;;26.90;88.10;;;;;;5007128;28;19945;-54
2022/05/01 04:43:11;;;;;;;;;;;26.90;88.70;;;;;;5007313;28;19921;-53
2022/05/01 04:45:39;;;;;;;;;;;26.80;88.20;;;;;;5006898;28;19906;-54
2022/05/01 04:48:05;;;;;;;;;;;26.80;88.40;;;;;;5006884;28;19957;-52
2022/05/01 04:50:31;;;;;;;;;;;26.80;88.60;;;;;;5007037;28;19906;-52
2022/05/01 04:53:00;;;;;;;;;;;26.70;88.60;;;;;;5007055;28;19921;-52
2022/05/01 04:55:26;;;;;;;;;;;26.80;88.80;;;;;;5006983;28;19913;-55
2022/05/01 04:57:52;;;;;;;;;;;26.80;88.90;;;;;;5005625;28;19924;-56
2022/05/01 05:00:21;;;;;;;;;;;26.70;88.90;;;;;;5006757;28;20137;-53
2022/05/01 05:02:48;;;;;;;;;;;26.70;88.90;;;;;;5006985;28;19914;-53
2022/05/01 05:05:15;;;;;;;;;;;26.70;89.00;;;;;;5006670;28;19912;-52
2022/05/01 05:07:41;;;;;;;;;;;26.70;89.10;;;;;;5006490;28;19921;-54
2022/05/01 05:10:08;;;;;;;;;;;26.70;89.20;;;;;;5006646;28;19910;-55
2022/05/01 05:12:35;;;;;;;;;;;26.60;89.80;;;;;;5006808;28;19920;-56
2022/05/01 05:15:03;;;;;;;;;;;26.60;89.30;;;;;;5006428;28;19906;-62
2022/05/01 05:17:31;;;;;;;;;;;26.60;89.30;;;;;;5006548;28;19922;-55
2022/05/01 05:19:58;;;;;;;;;;;26.60;89.50;;;;;;5006446;28;19933;-55
2022/05/01 05:22:24;;;;;;;;;;;26.50;89.50;;;;;;5006299;28;19936;-56
2022/05/01 05:24:50;;;;;;;;;;;26.60;89.60;;;;;;5006494;28;20137;-57
2022/05/01 05:27:20;;;;;;;;;;;26.50;89.50;;;;;;5006277;28;19945;-55
2022/05/01 05:29:49;;;;;;;;;;;26.50;89.50;;;;;;5006126;28;19917;-55
2022/05/01 05:32:16;;;;;;;;;;;26.50;89.50;;;;;;5006103;28;19980;-55
2022/05/01 05:34:42;;;;;;;;;;;26.50;89.50;;;;;;5006513;28;20162;-49
2022/05/01 05:37:08;;;;;;;;;;;26.50;89.40;;;;;;5006150;28;20071;-50
2022/05/01 05:39:34;;;;;;;;;;;26.50;89.90;;;;;;5006051;28;19921;-49
2022/05/01 05:42:00;;;;;;;;;;;26.50;89.40;;;;;;5005973;28;20101;-52
2022/05/01 05:44:26;;;;;;;;;;;26.50;89.40;;;;;;5005964;28;20205;-50
2022/05/01 05:46:52;;;;;;;;;;;26.50;89.40;;;;;;5005711;28;19913;-45
2022/05/01 05:49:19;;;;;;;;;;;26.40;89.80;;;;;;5005845;28;19973;-47
2022/05/01 05:53:28;;;;;;;;;;;26.30;90.00;;;;;;5116447;27;19954;-43
2022/05/01 05:55:54;;;;;;;;;;;26.40;90.10;;;;;;5107992;28;20096;-42
2022/05/01 05:58:20;;;;;;;;;;;26.30;90.00;;;;;;5101690;28;19915;-41
2022/05/01 06:00:46;;;;;;;;;;;26.40;90.00;;;;;;5102106;28;19905;-42
2022/05/01 06:03:12;;;;;;;;;;;26.40;90.00;;;;;;5102247;28;19908;-50
2022/05/01 06:05:38;;;;;;;;;;;26.40;89.90;;;;;;5101559;28;19962;-43
2022/05/01 06:08:05;;;;;;;;;;;26.50;89.90;;;;;;5101656;28;19916;-42
2022/05/01 06:10:31;;;;;;;;;;;26.50;89.90;;;;;;5101723;28;19909;-45
2022/05/01 06:12:57;;;;;;;;;;;26.50;89.90;;;;;;5102026;28;20096;-45
2022/05/01 06:15:24;;;;;;;;;;;26.50;89.90;;;;;;5102038;28;19908;-43
2022/05/01 06:17:51;;;;;;;;;;;26.50;89.90;;;;;;5101946;28;19908;-45
2022/05/01 06:20:18;;;;;;;;;;;26.50;89.70;;;;;;5101436;28;19953;-43
2022/05/01 06:22:44;;;;;;;;;;;26.50;89.80;;;;;;5100839;28;19908;-42
2022/05/01 06:25:10;;;;;;;;;;;26.50;89.70;;;;;;5099693;28;20263;-43
2022/05/01 06:27:36;;;;;;;;;;;26.50;89.60;;;;;;5101269;28;19908;-41
2022/05/01 06:30:03;;;;;;;;;;;26.50;89.60;;;;;;5101401;28;19908;-44
2022/05/01 06:32:29;;;;;;;;;;;26.50;89.60;;;;;;5101553;28;19912;-44
2022/05/01 06:34:55;;;;;;;;;;;26.50;89.60;;;;;;5101218;28;19931;-44
2022/05/01 06:37:21;;;;;;;;;;;26.50;89.40;;;;;;5101322;28;19922;-43
2022/05/01 06:39:47;;;;;;;;;;;26.50;89.60;;;;;;5101146;28;20254;-41
2022/05/01 06:42:14;;;;;;;;;;;26.50;89.50;;;;;;5100993;28;19908;-44
2022/05/01 06:44:40;;;;;;;;;;;26.50;89.40;;;;;;5099273;28;19908;-46
2022/05/01 06:47:08;;;;;;;;;;;26.50;89.60;;;;;;5099571;28;20253;-44
2022/05/01 06:49:34;;;;;;;;;;;26.50;90.00;;;;;;5099293;28;19937;-45
2022/05/01 06:52:00;;;;;;;;;;;26.50;89.50;;;;;;5107567;28;20146;-42
2022/05/01 06:54:26;;;;;;;;;;;26.50;89.60;;;;;;5119511;28;19904;-45
2022/05/01 06:56:52;;;;;;;;;;;26.50;89.40;;;;;;5119551;28;19977;-42
2022/05/01 06:59:19;;;;;;;;;;;26.50;89.30;;;;;;5120796;28;19926;-44
2022/05/01 07:01:47;;;;;;;;;;;26.40;89.30;;;;;;5121169;28;19916;-45
2022/05/01 07:04:13;;;;;;;;;;;26.40;89.20;;;;;;5110345;28;19908;-46
2022/05/01 07:06:40;;;;;;;;;;;26.40;89.20;;;;;;5107431;28;19912;-47
2022/05/01 07:09:07;;;;;;;;;;;26.40;89.40;;;;;;5089253;28;20211;-46
2022/05/01 07:11:33;;;;;;;;;;;26.40;89.30;;;;;;5106894;28;20095;-47
2022/05/01 07:13:59;;;;;;;;;;;26.40;89.30;;;;;;5106842;28;20188;-49
2022/05/01 07:16:25;;;;;;;;;;;26.40;89.30;;;;;;5107215;28;19912;-46
2022/05/01 07:18:51;;;;;;;;;;;26.30;89.40;;;;;;5107264;28;19971;-48
2022/05/01 07:21:18;;;;;;;;;;;26.30;89.50;;;;;;5106953;28;19912;-43
2022/05/01 07:23:45;;;;;;;;;;;26.40;90.00;;;;;;5107036;28;19908;-44
2022/05/01 07:26:11;;;;;;;;;;;26.40;89.70;;;;;;5107026;28;19924;-48
2022/05/01 07:28:37;;;;;;;;;;;26.30;89.70;;;;;;5106938;28;19904;-44
2022/05/01 07:31:04;;;;;;;;;;;26.30;89.80;;;;;;5106793;28;19904;-43
2022/05/01 07:33:30;;;;;;;;;;;26.30;89.80;;;;;;5106822;28;19939;-45
2022/05/01 07:35:58;;;;;;;;;;;26.30;89.80;;;;;;5106801;28;19905;-47
2022/05/01 07:38:24;;;;;;;;;;;26.30;89.70;;;;;;5106601;28;19975;-51
2022/05/01 07:40:50;;;;;;;;;;;26.30;89.90;;;;;;5106733;28;19904;-45
2022/05/01 07:43:16;;;;;;;;;;;26.30;89.90;;;;;;5106726;28;19919;-48
2022/05/01 07:45:45;;;;;;;;;;;26.30;89.80;;;;;;5106576;28;19904;-50
2022/05/01 07:48:12;;;;;;;;;;;26.30;89.80;;;;;;5107055;28;19919;-42
2022/05/01 07:50:38;;;;;;;;;;;26.30;89.70;;;;;;5106475;28;19905;-44
2022/05/01 07:53:04;;;;;;;;;;;26.30;89.60;;;;;;5106061;28;19920;-42
2022/05/01 07:55:30;;;;;;;;;;;26.30;89.50;;;;;;5106271;28;19904;-47
2022/05/01 07:57:56;;;;;;;;;;;26.20;89.60;;;;;;5106707;28;19912;-50
2022/05/01 08:00:22;;;;;;;;;;;26.30;89.70;;;;;;5106177;28;19940;-44
2022/05/01 08:05:33;;;;;;;;;;;26.30;89.50;;;;;;5106212;28;19926;-47
2022/05/01 08:07:59;;;;;;;;;;;26.30;89.60;;;;;;5106606;28;19919;-46
2022/05/01 08:10:25;;;;;;;;;;;26.20;89.60;;;;;;5106232;28;20135;-48
2022/05/01 08:12:52;;;;;;;;;;;26.20;89.70;;;;;;5106360;28;20100;-46
2022/05/01 08:15:18;;;;;;;;;;;26.20;89.70;;;;;;5105162;28;19911;-44
2022/05/01 08:17:45;;;;;;;;;;;26.20;89.60;;;;;;5106393;28;19983;-45
2022/05/01 08:23:07;;;;;;;;;;;26.10;89.60;;;;;;5106415;28;19919;-47
2022/05/01 08:25:33;;;;;;;;;;;26.20;89.80;;;;;;5105766;28;20181;-47
2022/05/01 08:27:59;;;;;;;;;;;26.10;89.70;;;;;;5106310;28;19919;-44
2022/05/01 08:30:26;;;;;;;;;;;26.10;89.90;;;;;;5105737;28;20187;-46
2022/05/01 08:32:52;;;;;;;;;;;26.10;89.80;;;;;;5106005;28;19916;-52
2022/05/01 08:35:18;;;;;;;;;;;26.10;89.90;;;;;;5105824;28;19916;-44
2022/05/01 08:37:44;;;;;;;;;;;26.10;90.00;;;;;;5105562;28;20054;-45
2022/05/01 08:40:11;;;;;;;;;;;26.10;90.00;;;;;;5105514;28;19971;-44
2022/05/01 08:42:38;;;;;;;;;;;26.10;90.00;;;;;;5105824;28;19944;-45
2022/05/01 08:45:09;;;;;;;;;;;26.10;90.00;;;;;;5105428;28;20207;-56
2022/05/01 08:47:59;;;;;;;;;;;26.10;90.00;;;;;;5105798;28;19912;-52
2022/05/01 08:50:25;;;;;;;;;;;26.10;90.10;;;;;;5105472;28;19904;-44
2022/05/01 08:52:52;;;;;;;;;;;26.10;90.10;;;;;;5105044;28;20211;-53
2022/05/01 08:55:19;;;;;;;;;;;26.00;90.10;;;;;;5105343;28;19912;-45
2022/05/01 08:57:45;;;;;;;;;;;26.00;90.10;;;;;;5105524;28;20095;-42
2022/05/01 09:00:13;;;;;;;;;;;26.00;90.10;;;;;;5105116;28;19904;-43
2022/05/01 09:02:39;;;;;;;;;;;26.00;90.20;;;;;;5105463;28;19999;-41
2022/05/01 09:05:05;;;;;;;;;;;26.00;90.20;;;;;;5105259;28;19919;-43
2022/05/01 09:07:32;;;;;;;;;;;26.00;90.20;;;;;;5105415;28;19919;-47
2022/05/01 09:09:58;;;;;;;;;;;26.00;90.20;;;;;;5104950;28;19908;-42
2022/05/01 09:15:11;;;;;;;;;;;26.00;90.30;;;;;;5104879;28;19980;-42
2022/05/01 09:17:37;;;;;;;;;;;26.00;90.30;;;;;;5105245;28;19983;-48
2022/05/01 09:20:07;;;;;;;;;;;26.00;90.30;;;;;;5104947;28;20247;-44
2022/05/01 09:22:53;;;;;;;;;;;26.00;90.30;;;;;;5104558;28;19944;-42
2022/05/01 09:25:22;;;;;;;;;;;26.00;90.40;;;;;;5104813;28;19908;-45
2022/05/01 09:27:49;;;;;;;;;;;26.00;90.40;;;;;;5104769;28;19908;-44
2022/05/01 09:30:16;;;;;;;;;;;25.90;90.30;;;;;;5104631;28;20068;-49
2022/05/01 09:32:43;;;;;;;;;;;26.00;90.40;;;;;;5105004;28;19918;-54
2022/05/01 09:35:15;;;;;;;;;;;26.00;90.40;;;;;;5104557;28;20007;-51
2022/05/01 09:37:41;;;;;;;;;;;26.00;90.50;;;;;;5105127;28;19915;-49
2022/05/01 09:40:08;;;;;;;;;;;25.90;90.50;;;;;;5104696;28;19908;-42
2022/05/01 09:42:35;;;;;;;;;;;25.90;90.50;;;;;;5104819;28;19915;-42
2022/05/01 09:45:05;;;;;;;;;;;25.90;90.60;;;;;;5104430;28;20065;-44
2022/05/01 09:47:35;;;;;;;;;;;25.90;90.60;;;;;;5104818;28;19950;-42
2022/05/01 09:50:04;;;;;;;;;;;25.90;90.50;;;;;;5104623;28;20257;-48
2022/05/01 09:52:50;;;;;;;;;;;25.90;90.50;;;;;;5104296;28;19962;-48
2022/05/01 09:55:16;;;;;;;;;;;25.90;90.50;;;;;;5090496;28;19919;-49
2022/05/01 09:57:42;;;;;;;;;;;25.90;90.50;;;;;;5104774;28;19912;-47
2022/05/01 10:00:09;;;;;;;;;;;25.90;90.50;;;;;;5104347;28;19904;-43
2022/05/01 10:02:35;;;;;;;;;;;25.90;90.50;;;;;;5104763;28;19939;-49
2022/05/01 10:05:06;;;;;;;;;;;25.90;90.50;;;;;;5104448;28;20255;-49
2022/05/01 10:07:39;;;;;;;;;;;25.90;90.60;;;;;;5104545;28;20219;-44
2022/05/01 10:10:07;;;;;;;;;;;25.90;90.50;;;;;;5104346;28;19943;-46
2022/05/01 10:12:44;;;;;;;;;;;25.90;90.60;;;;;;5104521;28;19916;-44
2022/05/01 10:15:10;;;;;;;;;;;25.90;90.80;;;;;;5104135;28;19981;-41
2022/05/01 10:17:38;;;;;;;;;;;25.90;90.60;;;;;;5104802;28;20065;-46
2022/05/01 10:20:04;;;;;;;;;;;25.90;90.60;;;;;;5104270;28;19904;-41
2022/05/01 10:22:35;;;;;;;;;;;25.90;90.60;;;;;;5104314;28;20180;-41
2022/05/01 10:25:02;;;;;;;;;;;25.90;90.60;;;;;;5104373;28;19911;-49
2022/05/01 10:27:34;;;;;;;;;;;25.90;90.60;;;;;;5104456;28;19912;-44
2022/05/01 10:33:21;;;;;;;;;;;25.80;90.60;;;;;;5104522;28;19938;-52
2022/05/01 10:35:47;;;;;;;;;;;25.80;90.60;;;;;;5104213;28;20192;-48
2022/05/01 10:38:17;;;;;;;;;;;25.80;90.70;;;;;;5104985;28;19912;-49
2022/05/01 10:40:49;;;;;;;;;;;25.80;90.70;;;;;;5108091;28;19967;-48
2022/05/01 10:43:41;;;;;;;;;;;25.80;90.70;;;;;;5108255;28;20096;-41
2022/05/01 10:46:17;;;;;;;;;;;25.80;90.80;;;;;;5104008;28;19904;-43
2022/05/01 10:48:43;;;;;;;;;;;25.80;90.80;;;;;;5107617;28;19904;-46
2022/05/01 10:51:27;;;;;;;;;;;25.80;90.80;;;;;;5107357;28;19905;-45
2022/05/01 10:54:14;;;;;;;;;;;25.80;90.90;;;;;;5107585;28;19904;-50
2022/05/01 10:56:51;;;;;;;;;;;25.80;90.90;;;;;;5107841;28;19912;-45
2022/05/01 10:59:29;;;;;;;;;;;25.80;90.90;;;;;;5107324;28;19904;-40
2022/05/01 11:01:59;;;;;;;;;;;25.80;90.90;;;;;;5107725;28;19919;-42
2022/05/01 11:04:26;;;;;;;;;;;25.80;90.90;;;;;;5107211;28;20007;-40
2022/05/01 11:06:53;;;;;;;;;;;25.80;90.90;;;;;;5107200;28;20204;-49
2022/05/01 11:09:19;;;;;;;;;;;25.80;90.90;;;;;;5107190;28;19908;-43
2022/05/01 11:11:46;;;;;;;;;;;25.80;90.90;;;;;;5107427;28;19923;-48
2022/05/01 11:14:15;;;;;;;;;;;25.80;90.90;;;;;;5107104;28;20239;-42
2022/05/01 11:16:52;;;;;;;;;;;25.80;91.00;;;;;;5107273;28;19912;-45
2022/05/01 11:19:18;;;;;;;;;;;25.80;91.00;;;;;;5106815;28;20135;-49
2022/05/01 11:21:47;;;;;;;;;;;25.90;91.00;;;;;;5107108;28;19912;-45
2022/05/01 11:24:15;;;;;;;;;;;25.90;91.10;;;;;;5106881;28;19938;-43
2022/05/01 11:26:59;;;;;;;;;;;25.90;91.10;;;;;;5107013;28;19912;-41
2022/05/01 11:29:25;;;;;;;;;;;25.90;91.10;;;;;;5107003;28;19983;-45
2022/05/01 11:31:52;;;;;;;;;;;25.90;91.10;;;;;;5106840;28;19923;-49
2022/05/01 11:34:23;;;;;;;;;;;25.90;91.10;;;;;;5106754;28;19912;-41
2022/05/01 11:37:03;;;;;;;;;;;25.90;91.10;;;;;;5106854;28;20091;-44
2022/05/01 11:39:50;;;;;;;;;;;26.00;91.10;;;;;;5106847;28;20013;-43
2022/05/01 11:42:36;;;;;;;;;;;26.00;91.10;;;;;;5106941;28;19948;-43
2022/05/01 11:45:04;;;;;;;;;;;26.00;91.10;;;;;;5106083;28;19904;-46
2022/05/01 11:47:34;;;;;;;;;;;26.00;91.00;;;;;;5106750;28;19912;-42
2022/05/01 11:50:01;;;;;;;;;;;26.00;91.00;;;;;;5106190;28;19986;-49
2022/05/01 11:52:27;;;;;;;;;;;26.10;91.00;;;;;;5106244;28;19941;-49
2022/05/01 11:54:55;;;;;;;;;;;26.10;90.90;;;;;;5106824;28;19975;-43
2022/05/01 12:02:24;;;;;;;;;;;26.10;90.90;;;;;;5065084;28;19927;-44
2022/05/01 12:03:12;;;;;;;;;;;26.10;90.80;;;;;;5106857;28;19948;-41
2022/05/01 12:05:43;;;;;;;;;;;26.20;90.80;;;;;;5106125;28;19911;-43
2022/05/01 12:08:10;;;;;;;;;;;26.20;90.80;;;;;;5106556;28;19950;-45
2022/05/01 12:10:42;;;;;;;;;;;26.20;90.80;;;;;;5106337;28;19904;-43
2022/05/01 12:13:18;;;;;;;;;;;26.30;90.70;;;;;;5106514;28;19986;-39
2022/05/01 12:15:44;;;;;;;;;;;26.30;90.70;;;;;;5106154;28;19978;-44
2022/05/01 12:18:10;;;;;;;;;;;26.30;90.60;;;;;;5106388;28;20124;-46
2022/05/01 12:20:36;;;;;;;;;;;26.30;90.60;;;;;;5106072;28;20113;-45
2022/05/01 12:23:03;;;;;;;;;;;26.40;90.60;;;;;;5106380;28;19912;-43
2022/05/01 12:25:30;;;;;;;;;;;26.40;90.60;;;;;;5105689;28;19939;-42
2022/05/01 12:27:57;;;;;;;;;;;26.50;90.60;;;;;;5106165;28;19912;-45
2022/05/01 12:30:27;;;;;;;;;;;26.50;90.60;;;;;;5105714;28;19919;-43
2022/05/01 12:32:54;;;;;;;;;;;26.60;90.60;;;;;;5105889;28;19923;-43
2022/05/01 12:35:20;;;;;;;;;;;26.60;90.70;;;;;;5105638;28;19931;-47
2022/05/01 12:37:48;;;;;;;;;;;26.60;90.70;;;;;;5105982;28;19951;-44
2022/05/01 12:43:50;;;;;;;;;;;26.60;90.60;;;;;;5105409;28;19979;-42
2022/05/01 12:45:53;;;;;;;;;;;26.70;90.60;;;;;;5105554;28;20155;-45
2022/05/01 12:48:21;;;;;;;;;;;26.80;90.40;;;;;;5105448;28;19904;-43
2022/05/01 12:50:51;;;;;;;;;;;26.90;90.30;;;;;;5105118;28;19904;-43
2022/05/01 12:53:21;;;;;;;;;;;27.00;90.20;;;;;;5105018;28;20195;-42
2022/05/01 12:55:47;;;;;;;;;;;27.00;90.00;;;;;;5105320;28;19926;-42
2022/05/01 12:58:14;;;;;;;;;;;27.10;89.90;;;;;;5105413;28;19935;-44
2022/05/01 13:00:41;;;;;;;;;;;27.10;89.60;;;;;;5104994;28;20010;-42
2022/05/01 13:03:20;;;;;;;;;;;27.10;89.50;;;;;;5105269;28;19918;-42
2022/05/01 13:05:59;;;;;;;;;;;27.10;89.30;;;;;;5104973;28;19935;-48
2022/05/01 13:08:27;;;;;;;;;;;27.20;89.30;;;;;;5104959;28;19979;-44
2022/05/01 13:11:11;;;;;;;;;;;27.30;89.20;;;;;;5104830;28;20007;-53
2022/05/01 13:13:54;;;;;;;;;;;27.30;89.10;;;;;;5105057;28;19908;-46
2022/05/01 13:16:23;;;;;;;;;;;27.30;89.00;;;;;;5104563;28;19919;-45
2022/05/01 13:18:51;;;;;;;;;;;27.40;88.80;;;;;;5103055;28;19936;-45
2022/05/01 13:21:17;;;;;;;;;;;27.40;88.60;;;;;;5103018;28;19912;-46
2022/05/01 13:23:44;;;;;;;;;;;27.50;88.70;;;;;;5103179;28;19909;-44
2022/05/01 13:26:10;;;;;;;;;;;27.50;88.40;;;;;;5103124;28;19929;-47
2022/05/01 13:28:36;;;;;;;;;;;27.50;88.50;;;;;;5102711;28;19941;-53
2022/05/01 13:31:03;;;;;;;;;;;27.50;88.40;;;;;;5103140;28;19935;-45
2022/05/01 13:33:29;;;;;;;;;;;27.60;88.30;;;;;;5102702;28;19915;-42
2022/05/01 13:35:56;;;;;;;;;;;27.60;88.30;;;;;;5102658;28;20208;-51
2022/05/01 13:38:22;;;;;;;;;;;27.60;87.90;;;;;;5102680;28;19905;-44
2022/05/01 13:46:16;;;;;;;;;;;27.70;87.70;;;;;;5104718;28;19918;-44
2022/05/01 13:48:43;;;;;;;;;;;27.80;87.40;;;;;;5104618;28;20096;-44
2022/05/01 13:51:09;;;;;;;;;;;27.80;87.40;;;;;;5104165;28;19905;-48
2022/05/01 13:53:36;;;;;;;;;;;27.80;87.40;;;;;;5104536;28;19907;-48
2022/05/01 13:56:02;;;;;;;;;;;27.80;87.40;;;;;;5104294;28;19904;-46
2022/05/01 13:58:28;;;;;;;;;;;27.90;87.40;;;;;;5104303;28;19975;-50
2022/05/01 14:00:54;;;;;;;;;;;28.10;87.00;;;;;;5104514;28;20135;-48
2022/05/01 14:03:20;;;;;;;;;;;28.10;86.50;;;;;;5104143;28;19911;-50
2022/05/01 14:05:46;;;;;;;;;;;28.20;86.40;;;;;;5104350;28;19912;-42
2022/05/01 14:08:12;;;;;;;;;;;28.30;86.30;;;;;;5104534;28;19939;-46
2022/05/01 14:10:38;;;;;;;;;;;28.30;85.90;;;;;;5104255;28;19904;-41
2022/05/01 14:13:07;;;;;;;;;;;28.30;86.30;;;;;;5104894;28;19923;-44
2022/05/01 14:15:37;;;;;;;;;;;28.30;86.60;;;;;;5108569;28;20215;-45
2022/05/01 14:18:03;;;;;;;;;;;28.30;86.60;;;;;;5108411;28;19979;-48
2022/05/01 14:20:31;;;;;;;;;;;28.30;86.50;;;;;;5105296;28;19920;-50
2022/05/01 14:22:57;;;;;;;;;;;28.40;86.50;;;;;;5112334;28;19979;-48
2022/05/01 14:25:24;;;;;;;;;;;28.40;86.20;;;;;;5118675;28;19911;-46
2022/05/01 14:27:50;;;;;;;;;;;28.40;86.60;;;;;;5101910;28;19912;-42
2022/05/01 14:30:17;;;;;;;;;;;28.40;85.60;;;;;;5111099;28;19975;-47
2022/05/01 14:33:07;;;;;;;;;;;28.50;84.90;;;;;;5113798;28;19916;-46
2022/05/01 14:35:36;;;;;;;;;;;28.60;85.20;;;;;;5080284;28;19915;-47
2022/05/01 14:38:08;;;;;;;;;;;28.70;84.80;;;;;;5103078;28;19912;-46
2022/05/01 14:40:35;;;;;;;;;;;28.80;85.10;;;;;;5107485;28;19904;-51
2022/05/01 14:43:12;;;;;;;;;;;28.90;84.90;;;;;;5107256;28;19979;-48
2022/05/01 14:45:41;;;;;;;;;;;28.90;84.50;;;;;;5106103;28;19906;-47
2022/05/01 14:48:28;;;;;;;;;;;29.00;84.00;;;;;;5100161;28;19979;-46
2022/05/01 14:50:55;;;;;;;;;;;29.00;84.20;;;;;;5095642;28;19903;-50
2022/05/01 14:53:22;;;;;;;;;;;29.00;84.00;;;;;;5125882;28;20157;-47
2022/05/01 14:55:49;;;;;;;;;;;29.10;83.70;;;;;;5128094;28;20084;-45
2022/05/01 15:06:39;;;;;;;;;;;29.00;84.30;;;;;;5127628;28;19918;-49
2022/05/01 15:09:06;;;;;;;;;;;29.00;84.10;;;;;;5127824;28;20119;-50